createdAt,value
2018-03-27T00:00:54.011Z,4.60
2018-03-27T00:03:21.678Z,4.60
2018-03-27T00:05:49.333Z,4.60
2018-03-27T00:08:17.616Z,4.70
2018-03-27T00:10:45.915Z,4.70
2018-03-27T00:13:14.191Z,4.70
2018-03-27T00:15:41.723Z,4.70
2018-03-27T00:18:09.249Z,4.70
2018-03-27T00:20:36.817Z,4.70
2018-03-27T00:23:05.244Z,4.70
2018-03-27T00:25:33.718Z,4.70
2018-03-27T00:28:12.967Z,4.70
2018-03-27T00:30:52.560Z,4.70
2018-03-27T00:33:31.912Z,4.70
2018-03-27T00:36:12.806Z,4.70
2018-03-27T00:38:52.366Z,4.70
2018-03-27T00:44:35.403Z,4.80
2018-03-27T00:47:03.870Z,4.70
2018-03-27T00:49:31.603Z,4.80
2018-03-27T00:51:59.397Z,4.80
2018-03-27T00:54:27.683Z,4.80
2018-03-27T00:56:55.234Z,4.70
2018-03-27T00:59:22.875Z,4.80
2018-03-27T01:01:50.458Z,4.80
2018-03-27T01:04:18.076Z,4.70
2018-03-27T01:06:46.363Z,4.60
2018-03-27T01:09:14.669Z,4.60
2018-03-27T01:11:42.190Z,4.60
2018-03-27T01:14:10.591Z,4.50
2018-03-27T01:16:38.125Z,4.50
2018-03-27T01:19:05.713Z,4.40
2018-03-27T01:21:33.313Z,4.30
2018-03-27T01:24:01.024Z,4.30
2018-03-27T01:26:28.628Z,4.20
2018-03-27T01:28:56.179Z,4.20
2018-03-27T01:31:23.697Z,4.10
2018-03-27T01:33:51.636Z,4.10
2018-03-27T01:36:19.256Z,4.00
2018-03-27T01:38:46.815Z,3.90
2018-03-27T01:41:14.347Z,3.90
2018-03-27T01:43:41.860Z,3.80
2018-03-27T01:46:09.470Z,3.80
2018-03-27T01:48:37.024Z,3.70
2018-03-27T01:51:05.434Z,3.60
2018-03-27T01:53:33.347Z,3.60
2018-03-27T01:56:01.543Z,3.50
2018-03-27T01:58:29.748Z,3.50
2018-03-27T02:00:57.280Z,3.50
2018-03-27T02:03:24.800Z,3.40
2018-03-27T02:05:53.100Z,3.40
2018-03-27T02:08:21.544Z,3.30
2018-03-27T02:10:48.602Z,3.30
2018-03-27T02:13:21.820Z,3.20
2018-03-27T02:15:55.110Z,3.20
2018-03-27T02:18:28.549Z,3.20
2018-03-27T02:21:02.183Z,3.10
2018-03-27T02:23:34.645Z,3.10
2018-03-27T02:26:03.160Z,3.00
2018-03-27T02:28:31.589Z,2.90
2018-03-27T02:30:59.233Z,2.90
2018-03-27T02:33:26.809Z,2.90
2018-03-27T02:35:54.329Z,2.80
2018-03-27T02:38:21.999Z,2.80
2018-03-27T02:40:49.597Z,2.60
2018-03-27T02:43:17.922Z,2.60
2018-03-27T02:45:45.440Z,2.60
2018-03-27T02:48:12.978Z,2.60
2018-03-27T02:50:40.496Z,2.60
2018-03-27T02:53:08.048Z,2.40
2018-03-27T02:55:35.728Z,2.40
2018-03-27T02:58:03.496Z,2.40
2018-03-27T03:00:31.145Z,2.40
2018-03-27T03:02:58.831Z,2.40
2018-03-27T03:05:26.352Z,2.40
2018-03-27T03:07:55.048Z,2.30
2018-03-27T03:10:23.420Z,2.30
2018-03-27T03:12:51.015Z,2.30
2018-03-27T03:15:19.340Z,2.30
2018-03-27T03:17:46.886Z,2.30
2018-03-27T03:20:14.429Z,2.30
2018-03-27T03:22:41.947Z,2.30
2018-03-27T03:25:09.493Z,2.30
2018-03-27T03:27:37.834Z,2.20
2018-03-27T03:30:05.445Z,2.20
2018-03-27T03:32:33.061Z,2.20
2018-03-27T03:35:01.682Z,2.20
2018-03-27T03:37:29.362Z,2.20
2018-03-27T03:39:56.951Z,2.20
2018-03-27T03:42:25.226Z,2.10
2018-03-27T03:44:52.755Z,2.10
2018-03-27T03:47:20.286Z,2.10
2018-03-27T03:49:47.876Z,2.10
2018-03-27T03:52:15.396Z,2.00
2018-03-27T03:54:42.938Z,2.00
2018-03-27T03:57:10.452Z,2.00
2018-03-27T03:59:37.991Z,1.80
2018-03-27T04:02:05.577Z,1.90
2018-03-27T04:04:33.256Z,2.00
2018-03-27T04:07:00.936Z,2.00
2018-03-27T04:09:29.492Z,1.90
2018-03-27T04:11:57.023Z,1.90
2018-03-27T04:14:25.300Z,1.90
2018-03-27T04:16:52.925Z,1.90
2018-03-27T04:19:20.462Z,1.90
2018-03-27T04:21:48.792Z,2.10
2018-03-27T04:24:16.332Z,2.10
2018-03-27T04:26:43.866Z,2.20
2018-03-27T04:29:11.388Z,2.20
2018-03-27T04:31:38.933Z,2.10
2018-03-27T04:34:07.212Z,2.00
2018-03-27T04:36:34.883Z,2.00
2018-03-27T04:39:02.561Z,2.00
2018-03-27T04:41:30.998Z,2.00
2018-03-27T04:43:58.743Z,2.00
2018-03-27T04:46:26.275Z,2.10
2018-03-27T04:48:53.812Z,2.10
2018-03-27T04:51:21.363Z,2.10
2018-03-27T04:53:48.900Z,2.20
2018-03-27T04:56:16.419Z,2.20
2018-03-27T04:58:43.952Z,2.30
2018-03-27T05:01:12.232Z,2.20
2018-03-27T05:03:39.767Z,2.20
2018-03-27T05:06:07.311Z,2.20
2018-03-27T05:08:34.995Z,2.30
2018-03-27T05:11:03.013Z,2.20
2018-03-27T05:13:30.667Z,2.30
2018-03-27T05:15:58.349Z,2.30
2018-03-27T05:18:26.679Z,2.20
2018-03-27T05:20:54.980Z,2.20
2018-03-27T05:23:23.425Z,2.30
2018-03-27T05:25:51.185Z,2.20
2018-03-27T05:28:18.853Z,2.30
2018-03-27T05:30:46.375Z,2.30
2018-03-27T05:33:14.651Z,2.40
2018-03-27T05:35:42.189Z,2.30
2018-03-27T05:38:09.706Z,2.30
2018-03-27T05:40:38.114Z,2.40
2018-03-27T05:43:05.777Z,2.30
2018-03-27T05:45:33.461Z,2.40
2018-03-27T05:48:01.036Z,2.40
2018-03-27T05:50:28.758Z,2.50
2018-03-27T05:52:56.357Z,2.50
2018-03-27T05:55:24.663Z,2.50
2018-03-27T05:57:52.943Z,2.60
2018-03-27T06:00:21.724Z,2.60
2018-03-27T06:02:49.338Z,2.60
2018-03-27T06:05:16.879Z,2.60
2018-03-27T06:07:45.168Z,2.60
2018-03-27T06:10:13.477Z,2.60
2018-03-27T06:12:40.999Z,2.60
2018-03-27T06:15:08.516Z,2.70
2018-03-27T06:17:36.112Z,2.70
2018-03-27T06:20:03.822Z,2.80
2018-03-27T06:22:32.334Z,2.80
2018-03-27T06:25:08.498Z,2.80
2018-03-27T06:27:36.166Z,2.90
2018-03-27T06:30:04.049Z,3.00
2018-03-27T06:32:31.786Z,3.10
2018-03-27T06:35:00.568Z,3.30
2018-03-27T06:37:28.170Z,3.50
2018-03-27T06:39:56.506Z,3.80
2018-03-27T06:42:24.806Z,3.90
2018-03-27T06:44:53.204Z,3.90
2018-03-27T06:47:20.964Z,4.10
2018-03-27T06:49:48.492Z,4.30
2018-03-27T06:52:16.045Z,4.50
2018-03-27T06:54:43.563Z,4.50
2018-03-27T06:57:11.100Z,4.70
2018-03-27T06:59:38.616Z,4.90
2018-03-27T07:02:06.979Z,5.10
2018-03-27T07:04:34.623Z,5.00
2018-03-27T07:07:02.434Z,5.30
2018-03-27T07:09:30.181Z,5.40
2018-03-27T07:11:58.608Z,5.60
2018-03-27T07:14:26.947Z,5.70
2018-03-27T07:16:54.449Z,5.60
2018-03-27T07:19:22.094Z,5.70
2018-03-27T07:21:50.386Z,5.90
2018-03-27T07:24:17.935Z,6.00
2018-03-27T07:26:45.450Z,6.10
2018-03-27T07:29:12.989Z,6.10
2018-03-27T07:31:40.500Z,6.20
2018-03-27T07:34:08.036Z,6.40
2018-03-27T07:36:36.247Z,6.50
2018-03-27T07:39:03.932Z,6.40
2018-03-27T07:41:31.483Z,6.60
2018-03-27T07:43:59.171Z,6.70
2018-03-27T07:46:26.752Z,6.90
2018-03-27T07:48:54.280Z,7.00
2018-03-27T07:51:21.914Z,7.10
2018-03-27T07:53:49.536Z,7.20
2018-03-27T07:56:17.099Z,7.20
2018-03-27T07:58:44.613Z,7.40
2018-03-27T08:01:12.148Z,7.40
2018-03-27T08:03:39.672Z,7.60
2018-03-27T08:06:07.278Z,7.90
2018-03-27T08:08:34.852Z,7.90
2018-03-27T08:11:02.680Z,7.80
2018-03-27T08:13:30.377Z,7.80
2018-03-27T08:15:58.087Z,7.60
2018-03-27T08:18:25.650Z,7.50
2018-03-27T08:20:53.192Z,7.70
2018-03-27T08:23:20.801Z,7.70
2018-03-27T08:25:49.065Z,7.80
2018-03-27T08:28:16.616Z,8.00
2018-03-27T08:30:44.893Z,8.90
2018-03-27T08:33:13.195Z,9.20
2018-03-27T08:35:41.484Z,9.20
2018-03-27T08:38:09.783Z,9.20
2018-03-27T08:40:37.307Z,9.10
2018-03-27T08:43:04.923Z,9.00
2018-03-27T08:45:33.445Z,8.90
2018-03-27T08:48:01.140Z,8.80
2018-03-27T08:50:28.730Z,8.70
2018-03-27T08:52:56.287Z,8.40
2018-03-27T08:55:23.800Z,8.60
2018-03-27T08:57:51.406Z,8.60
2018-03-27T09:00:18.927Z,8.70
2018-03-27T09:02:47.095Z,8.80
2018-03-27T09:05:14.615Z,8.60
2018-03-27T09:07:42.149Z,8.50
2018-03-27T09:10:09.678Z,8.50
2018-03-27T09:12:37.205Z,8.80
2018-03-27T09:15:05.609Z,9.40
2018-03-27T09:17:33.226Z,9.30
2018-03-27T09:20:00.980Z,9.80
2018-03-27T09:22:28.720Z,10.00
2018-03-27T09:24:56.280Z,10.20
2018-03-27T09:27:24.564Z,10.30
2018-03-27T09:29:52.197Z,10.30
2018-03-27T09:32:20.662Z,11.20
2018-03-27T09:34:48.219Z,11.10
2018-03-27T09:37:15.748Z,11.00
2018-03-27T09:39:43.280Z,10.90
2018-03-27T09:42:10.809Z,10.90
2018-03-27T09:44:38.347Z,10.60
2018-03-27T09:47:06.009Z,10.30
2018-03-27T09:49:33.718Z,10.00
2018-03-27T09:52:01.580Z,9.70
2018-03-27T09:54:29.381Z,9.40
2018-03-27T09:56:56.922Z,9.20
2018-03-27T09:59:24.436Z,9.10
2018-03-27T10:01:52.800Z,9.10
2018-03-27T10:04:20.369Z,9.10
2018-03-27T10:06:47.911Z,9.30
2018-03-27T10:09:15.437Z,9.40
2018-03-27T10:11:43.744Z,10.00
2018-03-27T10:14:11.267Z,10.00
2018-03-27T10:16:38.827Z,10.30
2018-03-27T10:19:06.396Z,10.60
2018-03-27T10:21:34.081Z,10.90
2018-03-27T10:24:01.712Z,11.00
2018-03-27T10:26:30.222Z,11.40
2018-03-27T10:28:57.837Z,11.40
2018-03-27T10:31:26.142Z,11.40
2018-03-27T10:33:54.447Z,10.90
2018-03-27T10:36:22.005Z,10.90
2018-03-27T10:38:50.327Z,11.00
2018-03-27T10:41:17.893Z,11.00
2018-03-27T10:43:45.422Z,10.90
2018-03-27T10:46:13.747Z,10.60
2018-03-27T10:48:41.272Z,10.60
2018-03-27T10:51:08.799Z,10.40
2018-03-27T10:53:36.476Z,10.40
2018-03-27T10:56:04.199Z,10.50
2018-03-27T10:58:32.896Z,10.40
2018-03-27T11:01:00.616Z,10.40
2018-03-27T11:03:28.499Z,10.70
2018-03-27T11:05:56.185Z,10.70
2018-03-27T11:08:23.700Z,10.60
2018-03-27T11:10:51.429Z,10.70
2018-03-27T11:13:19.033Z,10.80
2018-03-27T11:15:47.344Z,11.10
2018-03-27T11:18:15.668Z,11.30
2018-03-27T11:20:43.659Z,11.30
2018-03-27T11:23:11.520Z,11.50
2018-03-27T11:25:39.027Z,11.60
2018-03-27T11:28:06.620Z,11.60
2018-03-27T11:30:34.690Z,11.40
2018-03-27T11:33:02.851Z,11.20
2018-03-27T11:35:30.524Z,11.20
2018-03-27T11:37:58.079Z,11.30
2018-03-27T11:40:25.612Z,11.10
2018-03-27T11:42:53.154Z,11.00
2018-03-27T11:45:20.720Z,11.20
2018-03-27T11:47:48.289Z,11.60
2018-03-27T11:50:15.809Z,11.60
2018-03-27T11:52:44.097Z,11.60
2018-03-27T11:55:12.404Z,12.20
2018-03-27T11:57:39.918Z,12.10
2018-03-27T12:00:14.046Z,12.80
2018-03-27T12:02:41.575Z,13.40
2018-03-27T12:05:09.095Z,13.90
2018-03-27T12:07:36.676Z,13.80
2018-03-27T12:10:04.345Z,13.60
2018-03-27T12:12:32.012Z,13.60
2018-03-27T12:15:00.509Z,13.60
2018-03-27T12:17:28.076Z,13.60
2018-03-27T12:19:56.428Z,13.10
2018-03-27T12:22:23.988Z,13.10
2018-03-27T12:24:51.678Z,12.90
2018-03-27T12:27:19.246Z,12.70
2018-03-27T12:29:46.807Z,12.50
2018-03-27T12:32:14.474Z,12.30
2018-03-27T12:34:42.034Z,12.10
2018-03-27T12:37:10.351Z,12.00
2018-03-27T12:39:37.879Z,12.00
2018-03-27T12:42:06.200Z,11.50
2018-03-27T12:44:33.783Z,11.50
2018-03-27T12:47:01.584Z,11.40
2018-03-27T12:49:29.266Z,11.30
2018-03-27T12:51:57.729Z,11.10
2018-03-27T12:54:25.281Z,11.10
2018-03-27T12:56:52.817Z,11.00
2018-03-27T12:59:20.384Z,11.00
2018-03-27T13:01:47.931Z,10.90
2018-03-27T13:04:15.459Z,11.00
2018-03-27T13:06:43.005Z,11.00
2018-03-27T13:09:10.527Z,11.10
2018-03-27T13:11:38.044Z,11.20
2018-03-27T13:14:05.634Z,11.10
2018-03-27T13:16:33.951Z,11.00
2018-03-27T13:19:01.573Z,11.00
2018-03-27T13:21:29.116Z,10.80
2018-03-27T13:23:56.628Z,10.90
2018-03-27T13:26:24.932Z,10.80
2018-03-27T13:28:52.465Z,10.80
2018-03-27T13:31:20.128Z,10.80
2018-03-27T13:33:48.520Z,10.80
2018-03-27T13:36:16.052Z,10.80
2018-03-27T13:38:43.595Z,10.80
2018-03-27T13:41:11.888Z,10.60
2018-03-27T13:43:40.199Z,10.50
2018-03-27T13:46:07.748Z,10.50
2018-03-27T13:48:36.091Z,10.40
2018-03-27T13:51:03.970Z,10.40
2018-03-27T13:53:31.613Z,10.30
2018-03-27T13:56:00.024Z,10.20
2018-03-27T13:58:27.575Z,10.10
2018-03-27T14:00:55.114Z,10.10
2018-03-27T14:03:22.676Z,10.00
2018-03-27T14:05:50.238Z,10.00
2018-03-27T14:08:17.803Z,10.00
2018-03-27T14:10:45.351Z,10.00
2018-03-27T14:13:12.912Z,10.00
2018-03-27T14:15:40.483Z,10.00
2018-03-27T14:18:08.003Z,10.00
2018-03-27T14:20:35.580Z,10.00
2018-03-27T14:23:03.173Z,9.90
2018-03-27T14:25:31.577Z,9.70
2018-03-27T14:27:59.166Z,9.70
2018-03-27T14:30:26.708Z,9.70
2018-03-27T14:32:55.024Z,9.70
2018-03-27T14:35:22.531Z,9.60
2018-03-27T14:37:50.988Z,9.60
2018-03-27T14:40:19.340Z,9.50
2018-03-27T14:42:46.902Z,9.50
2018-03-27T14:45:15.192Z,9.50
2018-03-27T14:47:43.514Z,9.50
2018-03-27T14:50:11.057Z,9.50
2018-03-27T14:52:39.335Z,9.40
2018-03-27T14:55:07.735Z,9.30
2018-03-27T14:57:36.059Z,9.20
2018-03-27T15:00:03.714Z,9.20
2018-03-27T15:02:31.280Z,9.20
2018-03-27T15:04:58.916Z,9.10
2018-03-27T15:07:27.280Z,9.00
2018-03-27T15:09:54.788Z,8.80
2018-03-27T15:12:22.336Z,8.70
2018-03-27T15:14:50.806Z,8.50
2018-03-27T15:17:18.364Z,8.50
2018-03-27T15:19:45.887Z,8.40
2018-03-27T15:22:13.408Z,8.40
2018-03-27T15:24:40.952Z,8.40
2018-03-27T15:27:09.876Z,8.40
2018-03-27T15:29:37.498Z,8.30
2018-03-27T15:32:05.160Z,8.40
2018-03-27T15:34:32.800Z,8.40
2018-03-27T15:37:00.387Z,8.40
2018-03-27T15:39:27.933Z,8.30
2018-03-27T15:41:55.511Z,8.30
2018-03-27T15:44:23.052Z,8.20
2018-03-27T15:46:51.407Z,8.10
2018-03-27T15:49:18.962Z,8.10
2018-03-27T15:51:47.343Z,8.20
2018-03-27T15:54:14.862Z,8.10
2018-03-27T15:56:42.904Z,8.00
2018-03-27T15:59:10.480Z,8.00
2018-03-27T16:01:38.012Z,7.90
2018-03-27T16:04:06.342Z,7.80
2018-03-27T16:06:33.893Z,7.70
2018-03-27T16:09:01.587Z,7.70
2018-03-27T16:11:30.233Z,7.70
2018-03-27T16:13:59.440Z,7.60
2018-03-27T16:16:27.854Z,7.60
2018-03-27T16:18:55.375Z,7.60
2018-03-27T16:21:22.968Z,7.50
2018-03-27T16:23:50.513Z,7.50
2018-03-27T16:26:18.055Z,7.40
2018-03-27T16:28:45.572Z,7.40
2018-03-27T16:31:15.606Z,7.40
2018-03-27T16:33:43.156Z,7.30
2018-03-27T16:36:10.684Z,7.30
2018-03-27T16:38:38.667Z,7.20
2018-03-27T16:41:06.188Z,7.20
2018-03-27T16:43:33.972Z,7.20
2018-03-27T16:46:01.528Z,7.20
2018-03-27T16:48:29.179Z,7.10
2018-03-27T16:50:57.600Z,7.00
2018-03-27T16:53:25.116Z,6.90
2018-03-27T16:55:53.175Z,6.90
2018-03-27T16:58:21.535Z,6.70
2018-03-27T17:00:49.107Z,6.70
2018-03-27T17:03:17.414Z,6.60
2018-03-27T17:05:44.935Z,6.60
2018-03-27T17:08:13.046Z,6.60
2018-03-27T17:10:40.553Z,6.60
2018-03-27T17:13:08.856Z,6.60
2018-03-27T17:15:36.387Z,6.50
2018-03-27T17:18:04.029Z,6.50
2018-03-27T17:20:31.754Z,6.50
2018-03-27T17:23:00.200Z,6.50
2018-03-27T17:25:27.749Z,6.50
2018-03-27T17:27:55.268Z,6.40
2018-03-27T17:30:22.829Z,6.40
2018-03-27T17:32:50.368Z,6.50
2018-03-27T17:35:17.966Z,6.40
2018-03-27T17:37:45.508Z,6.40
2018-03-27T17:40:13.031Z,6.40
2018-03-27T17:42:40.543Z,6.30
2018-03-27T17:45:08.124Z,6.30
2018-03-27T17:47:35.716Z,6.30
2018-03-27T17:50:03.390Z,6.30
2018-03-27T17:52:30.990Z,6.30
2018-03-27T17:54:59.601Z,6.20
2018-03-27T17:57:27.179Z,6.20
2018-03-27T17:59:54.694Z,6.20
2018-03-27T18:02:22.257Z,6.20
2018-03-27T18:04:49.829Z,6.20
2018-03-27T18:07:17.348Z,6.20
2018-03-27T18:09:44.879Z,6.20
2018-03-27T18:12:12.397Z,6.10
2018-03-27T18:14:40.698Z,6.10
2018-03-27T18:17:08.978Z,6.10
2018-03-27T18:19:36.551Z,6.10
2018-03-27T18:22:04.963Z,6.00
2018-03-27T18:24:32.583Z,6.00
2018-03-27T18:27:00.499Z,6.10
2018-03-27T18:29:28.073Z,6.10
2018-03-27T18:31:55.618Z,6.10
2018-03-27T18:34:23.147Z,6.10
2018-03-27T18:36:50.737Z,6.10
2018-03-27T18:39:18.384Z,6.10
2018-03-27T18:41:45.888Z,6.10
2018-03-27T18:44:13.432Z,6.00
2018-03-27T18:46:40.957Z,6.00
2018-03-27T18:49:09.264Z,6.00
2018-03-27T18:51:36.860Z,6.00
2018-03-27T18:54:04.962Z,6.00
2018-03-27T18:56:32.554Z,6.00
2018-03-27T18:59:00.226Z,6.10
2018-03-27T19:01:27.811Z,6.00
2018-03-27T19:03:55.420Z,6.00
2018-03-27T19:06:23.290Z,6.00
2018-03-27T19:08:50.835Z,6.00
2018-03-27T19:11:19.127Z,6.00
2018-03-27T19:13:47.427Z,6.00
2018-03-27T19:16:15.732Z,6.00
2018-03-27T19:18:43.264Z,6.00
2018-03-27T19:21:10.776Z,6.00
2018-03-27T19:23:38.564Z,6.00
2018-03-27T19:26:06.144Z,6.00
2018-03-27T19:28:33.701Z,6.00
2018-03-27T19:31:01.483Z,6.10
2018-03-27T19:33:29.051Z,6.10
2018-03-27T19:35:57.431Z,6.10
2018-03-27T19:38:24.955Z,6.10
2018-03-27T19:40:52.501Z,6.10
2018-03-27T19:43:20.852Z,6.10
2018-03-27T19:45:48.440Z,6.10
2018-03-27T19:48:15.971Z,6.10
2018-03-27T19:53:45.422Z,6.10
2018-03-27T19:56:13.727Z,6.10
2018-03-27T19:58:42.024Z,6.10
2018-03-27T20:01:09.537Z,6.10
2018-03-27T20:03:37.089Z,6.00
2018-03-27T20:06:04.769Z,6.00
2018-03-27T20:08:32.392Z,6.00
2018-03-27T20:11:00.807Z,6.00
2018-03-27T20:13:28.456Z,6.00
2018-03-27T20:15:56.796Z,6.00
2018-03-27T20:18:24.303Z,6.00
2018-03-27T20:20:51.868Z,6.00
2018-03-27T20:23:19.410Z,6.00
2018-03-27T20:25:46.919Z,6.00
2018-03-27T20:28:14.475Z,6.00
2018-03-27T20:30:41.986Z,6.00
2018-03-27T20:33:10.291Z,5.90
2018-03-27T20:35:37.844Z,5.90
2018-03-27T20:38:06.331Z,5.90
2018-03-27T20:40:34.748Z,5.90
2018-03-27T20:43:03.440Z,5.90
2018-03-27T20:45:31.445Z,5.90
2018-03-27T20:47:59.085Z,5.90
2018-03-27T20:50:26.633Z,5.90
2018-03-27T20:52:54.907Z,5.90
2018-03-27T20:55:22.439Z,5.90
2018-03-27T20:57:50.078Z,5.90
2018-03-27T21:00:17.613Z,5.90
2018-03-27T21:02:45.143Z,5.80
2018-03-27T21:05:12.648Z,5.90
2018-03-27T21:07:40.240Z,5.90
2018-03-27T21:10:07.748Z,5.90
2018-03-27T21:12:35.373Z,5.80
2018-03-27T21:15:03.121Z,5.90
2018-03-27T21:17:30.771Z,5.80
2018-03-27T21:19:58.351Z,5.80
2018-03-27T21:22:25.870Z,5.80
2018-03-27T21:24:53.444Z,5.80
2018-03-27T21:27:20.968Z,5.80
2018-03-27T21:29:48.584Z,5.80
2018-03-27T21:32:16.903Z,5.80
2018-03-27T21:34:45.197Z,5.80
2018-03-27T21:37:12.723Z,5.80
2018-03-27T21:39:40.235Z,5.80
2018-03-27T21:42:08.550Z,5.80
2018-03-27T21:44:36.111Z,5.80
2018-03-27T21:47:03.754Z,5.80
2018-03-27T21:49:31.360Z,5.80
2018-03-27T21:51:58.952Z,5.80
2018-03-27T21:54:27.295Z,5.90
2018-03-27T21:56:58.380Z,5.90
2018-03-27T21:59:25.948Z,5.90
2018-03-27T22:01:53.456Z,5.90
2018-03-27T22:04:21.114Z,5.90
2018-03-27T22:06:48.626Z,5.90
2018-03-27T22:09:16.173Z,5.90
2018-03-27T22:11:43.703Z,6.00
2018-03-27T22:14:11.223Z,6.00
2018-03-27T22:16:38.761Z,6.00
2018-03-27T22:19:06.300Z,6.00
2018-03-27T22:21:33.968Z,6.00
2018-03-27T22:24:01.625Z,6.00
2018-03-27T22:26:29.954Z,6.00
2018-03-27T22:28:57.508Z,6.00
2018-03-27T22:31:25.064Z,6.00
2018-03-27T22:33:53.367Z,6.00
2018-03-27T22:36:21.503Z,6.00
2018-03-27T22:38:49.061Z,6.00
2018-03-27T22:41:16.576Z,6.00
2018-03-27T22:43:44.879Z,6.10
2018-03-27T22:46:13.159Z,6.10
2018-03-27T22:48:41.447Z,6.10
2018-03-27T22:51:09.740Z,6.10
2018-03-27T22:53:38.019Z,6.10
2018-03-27T22:56:06.347Z,6.10
2018-03-27T22:58:33.901Z,6.10
2018-03-27T23:01:01.456Z,6.10
2018-03-27T23:03:29.845Z,6.20
2018-03-27T23:05:57.447Z,6.10
2018-03-27T23:08:24.991Z,6.20
2018-03-27T23:10:53.267Z,6.20
2018-03-27T23:13:21.579Z,6.10
2018-03-27T23:15:49.108Z,6.10
2018-03-27T23:18:16.650Z,6.20
2018-03-27T23:20:44.156Z,6.20
2018-03-27T23:23:11.692Z,6.20
2018-03-27T23:25:39.204Z,6.20
2018-03-27T23:28:07.802Z,6.20
2018-03-27T23:30:36.228Z,6.20
2018-03-27T23:33:03.844Z,6.20
2018-03-27T23:35:31.433Z,6.20
2018-03-27T23:37:59.074Z,6.20
2018-03-27T23:40:26.665Z,6.30
2018-03-27T23:42:54.191Z,6.30
2018-03-27T23:45:21.825Z,6.30
2018-03-27T23:47:50.160Z,6.40
2018-03-27T23:50:17.716Z,6.40
2018-03-27T23:52:45.951Z,6.40
2018-03-27T23:55:13.514Z,6.40
2018-03-27T23:57:41.042Z,6.50
